Time;durP1;ratioP1;P1;durP2;ratioP2;P2;SDS_P1;SDS_P2;PMS_P1;PMS_P2;Temp;Humidity;BMP_temperature;BMP_pressure;BME280_temperature;BME280_humidity;BME280_pressure;Samples;Min_cycle;Max_cycle;Signal;HPM_P1;HPM_P2
2023/09/21 00:00:13;;;;;;;16.30;7.70;;;;;;;17.95;100.00;95378.34;5061832;28;20247;-76
2023/09/21 00:02:49;;;;;;;19.13;7.90;;;;;;;17.73;100.00;95378.16;5037654;28;20244;-77
2023/09/21 00:05:17;;;;;;;16.90;7.77;;;;;;;17.65;100.00;95365.25;5063746;28;20243;-77
2023/09/21 00:07:43;;;;;;;17.20;7.40;;;;;;;17.75;100.00;95365.50;5066394;28;20703;-76
2023/09/21 00:10:09;;;;;;;15.00;7.17;;;;;;;17.88;100.00;95373.19;5020448;28;20248;-76
2023/09/21 00:12:35;;;;;;;18.40;7.40;;;;;;;17.84;100.00;95373.91;5052164;28;20808;-76
2023/09/21 00:15:08;;;;;;;22.90;7.73;;;;;;;17.65;100.00;95377.72;5065523;28;20841;-76
2023/09/21 00:17:34;;;;;;;16.33;7.70;;;;;;;17.76;100.00;95375.06;5044678;28;20229;-76
2023/09/21 00:20:01;;;;;;;18.20;7.63;;;;;;;17.94;100.00;95374.91;5047904;28;20291;-76
2023/09/21 00:22:27;;;;;;;20.10;7.23;;;;;;;17.90;100.00;95372.94;5049776;28;20240;-77
2023/09/21 00:24:52;;;;;;;17.17;7.60;;;;;;;17.91;100.00;95377.22;5066593;28;20351;-77
2023/09/21 00:27:18;;;;;;;18.67;8.13;;;;;;;18.05;100.00;95373.28;5043900;28;20236;-77
2023/09/21 00:29:45;;;;;;;17.50;8.50;;;;;;;18.09;100.00;95382.34;5036965;28;20629;-76
2023/09/21 00:32:11;;;;;;;22.27;9.13;;;;;;;18.21;100.00;95396.38;5069630;28;20301;-77
2023/09/21 00:34:36;;;;;;;23.50;10.13;;;;;;;18.34;100.00;95400.59;5068731;28;20231;-77
2023/09/21 00:37:02;;;;;;;25.50;10.40;;;;;;;18.45;100.00;95405.88;5032536;28;20228;-77
2023/09/21 00:39:27;;;;;;;26.93;10.63;;;;;;;18.55;100.00;95397.34;5059238;28;20251;-77
2023/09/21 00:41:53;;;;;;;22.50;10.27;;;;;;;18.57;100.00;95400.53;5068980;28;20227;-78
2023/09/21 00:44:22;;;;;;;22.77;10.50;;;;;;;18.56;100.00;95401.56;5046966;28;20222;-77
2023/09/21 00:46:48;;;;;;;29.73;10.70;;;;;;;18.60;100.00;95405.38;5069939;28;20228;-77
2023/09/21 00:49:17;;;;;;;25.80;10.80;;;;;;;18.66;100.00;95410.53;5047258;28;20248;-77
2023/09/21 00:51:43;;;;;;;25.10;10.90;;;;;;;18.65;100.00;95414.22;5069511;28;20277;-77
2023/09/21 00:54:08;;;;;;;22.43;11.37;;;;;;;18.65;100.00;95408.91;5049413;28;20667;-77
2023/09/21 00:56:34;;;;;;;26.73;11.30;;;;;;;18.52;100.00;95408.41;5046531;28;20228;-77
2023/09/21 00:59:00;;;;;;;22.87;11.30;;;;;;;18.60;100.00;95410.69;5056147;28;20285;-78
2023/09/21 01:01:27;;;;;;;23.70;11.23;;;;;;;18.61;100.00;95410.44;5036472;28;20322;-77
2023/09/21 01:03:53;;;;;;;24.43;11.27;;;;;;;18.48;100.00;95405.44;5031156;28;20243;-77
2023/09/21 01:06:19;;;;;;;23.70;11.53;;;;;;;18.48;100.00;95388.72;5044686;28;20228;-77
2023/09/21 01:08:44;;;;;;;23.97;10.87;;;;;;;18.47;100.00;95382.59;5066411;28;20233;-77
2023/09/21 01:11:10;;;;;;;21.97;11.63;;;;;;;18.39;100.00;95390.88;5034101;28;20254;-77
2023/09/21 01:13:36;;;;;;;25.87;11.00;;;;;;;18.41;100.00;95388.03;5059098;28;20553;-76
2023/09/21 01:16:02;;;;;;;25.37;11.27;;;;;;;18.47;100.00;95377.31;5067209;28;20225;-76
2023/09/21 01:18:28;;;;;;;21.30;10.70;;;;;;;18.46;100.00;95377.53;5042037;28;20603;-77
2023/09/21 01:21:04;;;;;;;23.97;11.57;;;;;;;18.27;100.00;95376.88;5050136;28;20260;-77
2023/09/21 01:23:49;;;;;;;22.70;10.90;;;;;;;18.40;100.00;95375.78;5041981;28;20244;-77
2023/09/21 01:26:16;;;;;;;22.40;11.60;;;;;;;18.30;100.00;95373.75;5069624;28;20222;-78
2023/09/21 01:28:42;;;;;;;21.47;11.43;;;;;;;18.37;100.00;95374.41;5045676;28;21309;-78
2023/09/21 01:31:09;;;;;;;21.27;11.10;;;;;;;18.41;100.00;95362.31;5069822;28;20716;-77
2023/09/21 01:33:35;;;;;;;21.20;11.73;;;;;;;18.36;100.00;95364.88;5068727;28;20647;-77
2023/09/21 01:36:00;;;;;;;20.97;11.43;;;;;;;18.39;100.00;95353.00;5046165;28;20741;-77
2023/09/21 01:38:27;;;;;;;26.40;11.50;;;;;;;18.40;100.00;95351.94;5064451;28;20237;-77
2023/09/21 01:40:53;;;;;;;27.63;11.90;;;;;;;18.49;100.00;95353.19;5063286;28;20229;-77
2023/09/21 01:43:18;;;;;;;23.53;11.77;;;;;;;18.46;100.00;95343.88;5063169;28;20225;-77
2023/09/21 01:45:48;;;;;;;24.43;11.87;;;;;;;18.43;100.00;95352.28;5054772;28;20225;-77
2023/09/21 01:48:14;;;;;;;24.03;11.87;;;;;;;18.41;100.00;95349.06;5054107;28;20315;-77
2023/09/21 01:50:46;;;;;;;22.90;11.50;;;;;;;18.33;100.00;95341.50;5065522;28;20232;-77
2023/09/21 01:53:11;;;;;;;30.23;12.07;;;;;;;18.31;100.00;95348.06;5051228;28;20294;-77
2023/09/21 01:55:37;;;;;;;26.40;11.57;;;;;;;18.13;100.00;95335.78;5065672;28;20233;-77
2023/09/21 01:58:06;;;;;;;26.70;12.60;;;;;;;18.12;100.00;95336.84;5046018;28;20224;-77
2023/09/21 02:00:35;;;;;;;19.80;11.93;;;;;;;18.22;100.00;95333.59;5032734;28;20666;-77
2023/09/21 02:03:04;;;;;;;21.70;11.93;;;;;;;18.25;100.00;95330.44;5039857;28;20227;-77
2023/09/21 02:05:30;;;;;;;22.37;11.70;;;;;;;18.22;100.00;95325.63;5063603;28;20233;-77
2023/09/21 02:07:55;;;;;;;26.40;12.60;;;;;;;18.12;100.00;95324.41;5054410;28;20243;-77
2023/09/21 02:10:21;;;;;;;23.43;12.23;;;;;;;17.99;100.00;95321.22;5056174;28;20228;-76
2023/09/21 02:12:57;;;;;;;24.93;12.13;;;;;;;18.13;100.00;95310.09;5061047;28;20320;-77
2023/09/21 02:15:23;;;;;;;27.70;12.40;;;;;;;18.30;100.00;95304.03;5056344;28;20327;-77
2023/09/21 02:17:49;;;;;;;25.60;12.33;;;;;;;18.30;100.00;95294.25;5057187;28;20724;-77
2023/09/21 02:20:15;;;;;;;23.80;12.40;;;;;;;18.34;100.00;95298.03;5090442;28;20239;-77
2023/09/21 02:22:45;;;;;;;24.83;12.30;;;;;;;18.34;100.00;95297.25;5059128;28;20239;-77
2023/09/21 02:25:10;;;;;;;25.13;11.40;;;;;;;18.30;100.00;95290.78;5055256;28;20623;-77
2023/09/21 02:27:40;;;;;;;22.57;11.40;;;;;;;18.37;100.00;95292.25;5041981;28;20249;-77
2023/09/21 02:30:07;;;;;;;25.90;10.90;;;;;;;18.23;100.00;95293.59;5069168;28;20239;-77
2023/09/21 02:32:33;;;;;;;22.63;10.60;;;;;;;18.28;100.00;95298.19;5071745;28;20291;-78
2023/09/21 02:35:03;;;;;;;22.17;10.60;;;;;;;18.30;100.00;95304.03;5059578;28;20232;-77
2023/09/21 02:37:28;;;;;;;23.13;10.80;;;;;;;18.26;100.00;95319.63;5050558;28;20286;-77
2023/09/21 02:39:54;;;;;;;20.63;10.83;;;;;;;18.11;100.00;95322.78;5048857;28;20240;-77
2023/09/21 02:42:19;;;;;;;20.90;10.70;;;;;;;18.03;100.00;95320.50;5052787;28;20231;-77
2023/09/21 02:44:46;;;;;;;27.13;11.07;;;;;;;18.07;100.00;95321.66;5066787;28;20228;-77
2023/09/21 02:47:11;;;;;;;23.97;10.93;;;;;;;18.15;100.00;95315.97;5067372;28;20237;-77
2023/09/21 02:49:37;;;;;;;23.70;11.03;;;;;;;18.08;100.00;95311.84;5046914;28;20236;-77
2023/09/21 02:52:04;;;;;;;21.67;11.27;;;;;;;17.99;100.00;95306.13;5066241;28;20228;-77
2023/09/21 02:54:32;;;;;;;20.00;10.50;;;;;;;18.13;100.00;95311.94;5056826;28;20732;-77
2023/09/21 02:56:57;;;;;;;23.53;11.10;;;;;;;17.96;100.00;95311.91;5053685;28;20735;-77
2023/09/21 02:59:25;;;;;;;23.60;11.30;;;;;;;17.89;100.00;95313.06;5052340;28;20245;-77
2023/09/21 03:01:54;;;;;;;24.17;10.03;;;;;;;17.91;100.00;95316.31;5042496;28;20236;-77
2023/09/21 03:04:19;;;;;;;19.93;10.10;;;;;;;17.77;100.00;95325.56;5060650;28;20225;-77
2023/09/21 03:06:45;;;;;;;26.53;10.47;;;;;;;17.69;100.00;95312.66;5042373;28;20601;-77
2023/09/21 03:09:11;;;;;;;22.67;10.10;;;;;;;17.77;100.00;95312.31;5063846;28;20233;-76
2023/09/21 03:11:36;;;;;;;18.03;9.27;;;;;;;17.84;100.00;95326.22;5054984;28;20228;-76
2023/09/21 03:14:04;;;;;;;18.40;9.13;;;;;;;17.66;100.00;95316.59;5052718;28;20599;-77
2023/09/21 03:16:30;;;;;;;20.43;9.40;;;;;;;17.80;100.00;95320.59;5056703;28;20263;-76
2023/09/21 03:18:55;;;;;;;20.63;10.10;;;;;;;17.88;100.00;95327.34;5064510;28;20209;-77
2023/09/21 03:21:22;;;;;;;22.33;10.10;;;;;;;17.90;100.00;95323.44;5070445;28;20224;-76
2023/09/21 03:23:48;;;;;;;23.20;10.50;;;;;;;17.83;100.00;95335.19;5049431;28;20229;-76
2023/09/21 03:26:15;;;;;;;19.70;10.30;;;;;;;17.77;100.00;95328.97;5071139;28;20255;-75
2023/09/21 03:28:40;;;;;;;25.43;10.30;;;;;;;17.52;100.00;95333.75;5053650;28;20235;-76
2023/09/21 03:31:06;;;;;;;22.77;10.10;;;;;;;17.43;100.00;95324.53;5052964;28;20227;-76
2023/09/21 03:33:31;;;;;;;18.70;9.90;;;;;;;17.33;100.00;95330.41;5037637;28;20279;-76
2023/09/21 03:35:58;;;;;;;24.80;10.13;;;;;;;17.47;100.00;95334.44;5051881;28;20264;-76
2023/09/21 03:38:24;;;;;;;18.17;9.73;;;;;;;17.49;100.00;95328.88;5048201;28;20242;-76
2023/09/21 03:40:50;;;;;;;23.80;10.30;;;;;;;17.29;100.00;95320.53;5070127;28;20637;-76
2023/09/21 03:43:15;;;;;;;21.27;9.97;;;;;;;17.23;100.00;95316.94;5043613;28;20224;-76
2023/09/21 03:45:42;;;;;;;24.73;10.27;;;;;;;17.48;100.00;95320.13;5069544;28;20248;-77
2023/09/21 03:48:09;;;;;;;25.97;10.23;;;;;;;17.45;100.00;95317.16;5070778;28;20919;-77
2023/09/21 03:50:35;;;;;;;21.43;10.50;;;;;;;17.43;100.00;95327.19;5053187;28;20694;-76
2023/09/21 03:53:04;;;;;;;22.87;10.30;;;;;;;17.43;100.00;95324.53;5048973;28;20311;-76
2023/09/21 03:55:30;;;;;;;22.87;10.20;;;;;;;17.52;100.00;95327.66;5042425;28;20256;-76
2023/09/21 03:57:55;;;;;;;22.03;11.10;;;;;;;17.44;100.00;95329.59;5052250;28;20739;-77
2023/09/21 04:02:53;;;;;;;23.77;9.97;;;;;;;17.52;100.00;95323.19;5063494;28;20232;-77
2023/09/21 04:05:19;;;;;;;22.80;9.80;;;;;;;17.32;100.00;95317.41;5070642;28;20225;-77
2023/09/21 04:07:48;;;;;;;23.07;10.00;;;;;;;17.49;100.00;95319.13;5067381;28;20311;-77
2023/09/21 04:10:15;;;;;;;22.43;10.17;;;;;;;17.54;100.00;95325.56;5074093;28;20262;-77
2023/09/21 04:12:41;;;;;;;23.37;9.77;;;;;;;17.34;100.00;95325.91;5030564;28;20308;-77
2023/09/21 04:15:08;;;;;;;28.13;10.70;;;;;;;17.52;100.00;95328.47;5070090;28;20232;-76
2023/09/21 04:17:33;;;;;;;26.30;10.13;;;;;;;17.32;100.00;95322.69;5051292;28;20227;-77
2023/09/21 04:19:59;;;;;;;24.40;10.23;;;;;;;17.16;100.00;95320.75;5069070;28;20224;-77
2023/09/21 04:22:25;;;;;;;20.57;9.83;;;;;;;17.35;100.00;95327.53;5055805;28;20560;-76
2023/09/21 04:24:51;;;;;;;24.20;9.30;;;;;;;17.53;100.00;95323.97;5049430;28;20229;-77
2023/09/21 04:27:17;;;;;;;20.80;9.83;;;;;;;17.62;100.00;95328.69;5054822;28;20283;-75
2023/09/21 04:29:43;;;;;;;19.47;9.37;;;;;;;17.68;100.00;95329.59;5056628;28;20231;-75
2023/09/21 04:32:09;;;;;;;23.93;10.27;;;;;;;17.81;100.00;95332.78;5063165;28;20221;-77
2023/09/21 04:34:36;;;;;;;27.20;10.57;;;;;;;17.92;100.00;95325.84;5059344;28;20864;-76
2023/09/21 04:37:02;;;;;;;28.10;10.70;;;;;;;17.94;100.00;95321.91;5070863;28;20259;-77
2023/09/21 04:39:28;;;;;;;22.97;9.93;;;;;;;17.98;100.00;95316.97;5056355;28;20802;-77
2023/09/21 04:41:53;;;;;;;27.77;10.50;;;;;;;17.73;100.00;95316.44;5061200;28;20741;-75
2023/09/21 04:44:19;;;;;;;21.80;11.00;;;;;;;17.79;100.00;95316.31;5051873;28;20232;-77
2023/09/21 04:46:44;;;;;;;21.73;9.90;;;;;;;17.50;100.00;95318.06;5070356;28;20225;-77
2023/09/21 04:49:10;;;;;;;20.93;9.93;;;;;;;17.65;100.00;95317.59;5052604;28;20233;-76
2023/09/21 04:51:35;;;;;;;28.27;12.17;;;;;;;17.73;100.00;95316.44;5074341;28;20236;-77
2023/09/21 04:54:01;;;;;;;23.63;9.73;;;;;;;17.81;100.00;95319.56;5056597;28;20232;-76
2023/09/21 04:56:27;;;;;;;26.67;10.37;;;;;;;17.87;100.00;95325.75;5084798;28;20232;-77
2023/09/21 04:58:55;;;;;;;21.87;9.90;;;;;;;17.84;100.00;95324.34;5073156;28;20237;-76
2023/09/21 05:01:25;;;;;;;25.23;10.30;;;;;;;17.94;100.00;95327.22;5073069;28;20221;-76
2023/09/21 05:03:50;;;;;;;27.63;10.70;;;;;;;17.91;100.00;95332.19;5082328;28;20248;-77
2023/09/21 05:06:18;;;;;;;29.60;11.33;;;;;;;18.07;100.00;95342.03;5066031;28;20293;-76
2023/09/21 05:08:44;;;;;;;28.07;10.80;;;;;;;18.17;100.00;95340.38;5071571;28;20229;-77
2023/09/21 05:11:10;;;;;;;26.03;10.23;;;;;;;18.24;100.00;95342.91;5068059;28;20240;-76
2023/09/21 05:13:36;;;;;;;25.43;10.60;;;;;;;18.13;100.00;95336.59;5072390;28;20288;-75
2023/09/21 05:16:03;;;;;;;22.40;9.87;;;;;;;18.17;100.00;95332.44;5091372;28;20228;-76
2023/09/21 05:18:29;;;;;;;25.33;10.20;;;;;;;18.27;100.00;95339.78;5067246;28;20233;-77
2023/09/21 05:20:55;;;;;;;25.33;10.17;;;;;;;18.33;100.00;95336.19;5063125;28;20296;-76
2023/09/21 05:23:20;;;;;;;26.23;10.10;;;;;;;18.39;100.00;95337.88;5052737;28;20233;-77
2023/09/21 05:25:46;;;;;;;22.83;10.37;;;;;;;18.46;100.00;95335.91;5050636;28;20232;-76
2023/09/21 05:28:11;;;;;;;22.23;10.30;;;;;;;18.39;100.00;95340.53;5065688;28;20237;-80
2023/09/21 05:30:38;;;;;;;27.23;9.90;;;;;;;18.55;100.00;95334.50;5084528;28;20246;-80
2023/09/21 05:33:05;;;;;;;29.83;10.83;;;;;;;18.53;100.00;95336.56;5065425;28;20280;-80
2023/09/21 05:35:31;;;;;;;27.10;10.07;;;;;;;18.50;100.00;95330.97;5067220;28;20229;-81
2023/09/21 05:37:56;;;;;;;26.67;9.70;;;;;;;18.59;100.00;95322.38;5068949;28;20236;-80
2023/09/21 05:40:22;;;;;;;23.13;9.70;;;;;;;18.70;100.00;95321.50;5084360;28;20802;-80
2023/09/21 05:42:47;;;;;;;27.10;10.07;;;;;;;18.71;100.00;95325.75;5056921;28;20216;-80
2023/09/21 05:45:13;;;;;;;27.40;10.07;;;;;;;18.82;100.00;95319.56;5057552;28;20236;-80
2023/09/21 05:47:38;;;;;;;25.70;10.80;;;;;;;18.76;100.00;95325.84;5083015;28;20323;-79
2023/09/21 05:50:05;;;;;;;26.20;10.77;;;;;;;18.89;100.00;95326.59;5073128;28;20229;-80
2023/09/21 05:52:33;;;;;;;26.03;11.27;;;;;;;18.86;100.00;95325.22;5058225;28;20821;-80
2023/09/21 05:55:00;;;;;;;28.23;11.30;;;;;;;18.86;100.00;95333.19;5068939;28;20228;-81
2023/09/21 05:57:27;;;;;;;25.07;11.10;;;;;;;18.86;100.00;95325.22;5072592;28;20228;-80
2023/09/21 05:59:52;;;;;;;22.60;10.50;;;;;;;18.98;100.00;95323.28;5045741;28;20233;-80
2023/09/21 06:02:18;;;;;;;22.73;10.40;;;;;;;19.02;100.00;95329.72;5057923;28;20226;-79
2023/09/21 06:04:43;;;;;;;23.43;10.93;;;;;;;19.05;100.00;95329.25;5066419;28;20274;-79
2023/09/21 06:07:09;;;;;;;24.67;10.23;;;;;;;19.03;100.00;95333.19;5057145;28;20604;-79
2023/09/21 06:09:35;;;;;;;24.90;10.03;;;;;;;19.08;99.39;95338.56;5056554;28;20252;-80
2023/09/21 06:12:00;;;;;;;21.97;10.10;;;;;;;19.13;98.23;95346.63;5059893;28;20228;-80
2023/09/21 06:14:26;;;;;;;27.70;10.03;;;;;;;19.09;98.80;95334.84;5070918;28;20316;-80
2023/09/21 06:16:54;;;;;;;29.17;10.83;;;;;;;19.10;100.00;95352.41;5071811;28;20246;-79
2023/09/21 06:19:20;;;;;;;31.63;10.50;;;;;;;19.15;98.77;95344.53;5054744;28;20251;-80
2023/09/21 06:21:47;;;;;;;20.47;9.30;;;;;;;19.25;98.44;95345.47;5058059;28;20248;-77
2023/09/21 06:24:12;;;;;;;21.83;9.73;;;;;;;19.28;98.08;95352.13;5059253;28;20237;-78
2023/09/21 06:26:38;;;;;;;22.13;9.37;;;;;;;19.28;97.71;95352.13;5055667;28;20308;-77
2023/09/21 06:29:04;;;;;;;28.07;10.30;;;;;;;19.24;97.45;95346.53;5039124;28;20324;-77
2023/09/21 06:31:30;;;;;;;23.17;9.33;;;;;;;19.31;98.00;95343.69;5073623;28;20268;-77
2023/09/21 06:33:59;;;;;;;21.13;9.77;;;;;;;19.35;97.24;95348.28;5057992;28;20655;-78
2023/09/21 06:36:28;;;;;;;27.27;9.40;;;;;;;19.47;96.78;95337.59;5073613;28;20247;-77
2023/09/21 06:38:55;;;;;;;23.67;10.10;;;;;;;19.65;96.23;95336.50;5031940;28;20257;-78
2023/09/21 06:41:21;;;;;;;21.40;10.10;;;;;;;19.71;95.68;95333.66;5043330;28;20289;-77
2023/09/21 06:43:47;;;;;;;20.33;9.83;;;;;;;19.66;95.33;95328.28;5050355;28;20352;-78
2023/09/21 06:46:12;;;;;;;24.97;9.73;;;;;;;19.74;95.06;95337.69;5065954;28;20258;-78
2023/09/21 06:48:38;;;;;;;21.53;10.50;;;;;;;19.74;94.79;95327.88;5053991;28;20240;-78
2023/09/21 06:51:04;;;;;;;23.90;9.07;;;;;;;19.73;94.82;95325.44;5050031;28;20240;-77
2023/09/21 06:53:31;;;;;;;22.63;9.33;;;;;;;19.74;94.43;95325.22;5067973;28;20234;-78
2023/09/21 06:55:56;;;;;;;22.33;8.90;;;;;;;19.83;93.22;95331.69;5052481;28;20298;-78
2023/09/21 06:58:22;;;;;;;22.90;9.37;;;;;;;19.79;93.82;95332.44;5040218;28;20239;-77
2023/09/21 07:00:48;;;;;;;15.60;7.17;;;;;;;19.79;91.12;95338.56;5039559;28;20233;-77
2023/09/21 07:03:15;;;;;;;20.00;7.40;;;;;;;19.78;90.47;95344.91;5048349;28;20290;-78
2023/09/21 07:05:43;;;;;;;15.70;7.53;;;;;;;19.84;90.65;95335.97;5041090;28;20278;-77
2023/09/21 07:08:09;;;;;;;16.70;7.37;;;;;;;19.81;92.20;95328.50;5035126;28;20239;-76
2023/09/21 07:10:35;;;;;;;15.10;7.30;;;;;;;19.87;92.23;95335.47;5064124;28;20256;-77
2023/09/21 07:13:01;;;;;;;19.10;7.40;;;;;;;19.89;92.09;95336.03;5069295;28;20745;-77
2023/09/21 07:15:28;;;;;;;20.10;8.00;;;;;;;19.91;90.73;95335.78;5048345;28;20737;-78
2023/09/21 07:17:55;;;;;;;17.27;7.30;;;;;;;19.91;92.11;95338.44;5072154;28;20281;-77
2023/09/21 07:20:23;;;;;;;13.37;7.30;;;;;;;20.11;89.34;95342.13;5034690;28;20230;-77
2023/09/21 07:22:49;;;;;;;18.73;6.93;;;;;;;20.29;90.38;95348.22;5046404;28;20319;-78
2023/09/21 07:25:15;;;;;;;16.90;6.90;;;;;;;20.33;88.13;95351.97;5052439;28;20232;-77
2023/09/21 07:27:42;;;;;;;14.70;7.18;;;;;;;20.41;87.07;95348.88;5052737;28;20231;-77
2023/09/21 07:30:08;;;;;;;17.17;6.77;;;;;;;20.48;85.20;95347.66;5081710;28;20604;-77
2023/09/21 07:32:35;;;;;;;17.73;6.60;;;;;;;20.52;86.66;95346.09;5056735;28;20319;-78
2023/09/21 07:35:04;;;;;;;16.00;8.07;;;;;;;20.55;87.27;95344.78;5069153;28;20233;-77
2023/09/21 07:37:30;;;;;;;16.87;7.67;;;;;;;20.59;85.47;95343.22;5054309;28;20251;-77
2023/09/21 07:39:57;;;;;;;17.90;8.73;;;;;;;20.60;85.22;95350.16;5063790;28;20701;-77
2023/09/21 07:42:22;;;;;;;13.80;6.40;;;;;;;20.56;85.52;95351.72;5068996;28;20287;-77
2023/09/21 07:44:48;;;;;;;13.37;6.27;;;;;;;20.65;86.90;95352.88;5054290;28;20252;-77
2023/09/21 07:47:14;;;;;;;13.53;6.30;;;;;;;20.68;85.93;95355.03;5075738;28;20698;-77
2023/09/21 07:49:39;;;;;;;13.67;6.70;;;;;;;20.66;85.94;95359.78;5070165;28;20983;-77
2023/09/21 07:52:07;;;;;;;11.63;6.40;;;;;;;20.65;85.69;95353.69;5062674;28;20263;-77
2023/09/21 07:54:33;;;;;;;14.90;6.67;;;;;;;20.72;86.02;95354.28;5070411;28;20232;-77
2023/09/21 07:56:59;;;;;;;12.70;6.50;;;;;;;20.84;86.17;95356.78;5041190;28;20232;-76
2023/09/21 07:59:25;;;;;;;11.10;6.63;;;;;;;20.88;85.53;95355.22;5057487;28;20320;-77
2023/09/21 08:01:53;;;;;;;15.10;6.73;;;;;;;20.90;86.04;95347.75;5053179;28;20228;-77
2023/09/21 08:04:20;;;;;;;12.40;6.70;;;;;;;20.85;87.06;95339.72;5074166;28;20231;-77
2023/09/21 08:06:46;;;;;;;17.37;7.40;;;;;;;20.91;85.25;95345.91;5055387;28;20670;-78
2023/09/21 08:09:13;;;;;;;19.00;7.80;;;;;;;20.88;86.22;95338.44;5055875;28;20233;-77
2023/09/21 08:11:39;;;;;;;16.53;7.50;;;;;;;20.92;86.59;95335.00;5072874;28;20301;-78
2023/09/21 08:14:05;;;;;;;13.40;7.50;;;;;;;20.97;86.11;95340.38;5057635;28;20702;-77
2023/09/21 08:16:32;;;;;;;17.03;7.77;;;;;;;20.98;87.00;95335.88;5070406;28;20236;-77
2023/09/21 08:19:01;;;;;;;12.40;6.80;;;;;;;20.96;85.95;95345.97;5074629;28;20228;-77
2023/09/21 08:21:26;;;;;;;12.67;6.93;;;;;;;20.96;85.82;95345.97;5032154;28;20374;-77
2023/09/21 08:23:52;;;;;;;12.90;6.90;;;;;;;20.98;85.63;95343.84;5050889;28;20237;-77
2023/09/21 08:26:18;;;;;;;15.70;7.20;;;;;;;20.96;85.23;95349.44;5073024;28;20225;-77
2023/09/21 08:28:45;;;;;;;14.30;6.93;;;;;;;20.96;84.58;95345.97;5071266;28;20235;-77
2023/09/21 08:31:11;;;;;;;20.53;6.80;;;;;;;20.96;83.79;95346.78;5071846;28;20260;-77
2023/09/21 08:33:37;;;;;;;14.70;7.20;;;;;;;20.95;86.70;95347.81;5050520;28;20795;-77
2023/09/21 08:36:03;;;;;;;16.13;7.40;;;;;;;20.98;84.86;95347.31;5038778;28;20233;-77
2023/09/21 08:38:28;;;;;;;15.63;7.97;;;;;;;21.03;85.69;95355.34;5041866;28;20259;-77
2023/09/21 08:40:54;;;;;;;18.90;8.20;;;;;;;21.05;86.20;95355.91;5051591;28;20228;-77
2023/09/21 08:43:21;;;;;;;13.40;7.40;;;;;;;21.00;86.28;95353.19;5053243;28;20233;-77
2023/09/21 08:45:47;;;;;;;18.63;7.70;;;;;;;21.04;85.95;95356.94;5052151;28;20233;-77
2023/09/21 08:48:15;;;;;;;13.07;7.50;;;;;;;21.09;85.65;95351.69;5064277;28;20221;-77
2023/09/21 08:50:41;;;;;;;15.47;8.00;;;;;;;21.10;85.10;95345.31;5046290;28;20237;-77
2023/09/21 08:53:08;;;;;;;13.60;7.60;;;;;;;21.00;85.39;95350.53;5049867;28;20236;-77
2023/09/21 08:55:34;;;;;;;16.50;7.97;;;;;;;21.04;85.74;95348.19;5039265;28;20267;-77
2023/09/21 08:57:59;;;;;;;15.80;7.93;;;;;;;21.03;86.23;95351.88;5050842;28;20318;-77
2023/09/21 09:00:26;;;;;;;15.83;7.83;;;;;;;21.06;87.35;95352.22;5071507;28;20335;-77
2023/09/21 09:02:52;;;;;;;17.23;8.03;;;;;;;21.05;85.49;95350.59;5038813;28;20271;-77
2023/09/21 09:05:18;;;;;;;16.23;8.18;;;;;;;21.06;85.40;95346.09;5051348;28;20233;-77
2023/09/21 09:07:43;;;;;;;19.50;8.07;;;;;;;21.03;86.00;95352.69;5032871;28;20243;-77
2023/09/21 09:10:12;;;;;;;13.68;7.55;;;;;;;21.05;85.74;95344.47;5050828;28;20235;-77
2023/09/21 09:12:39;;;;;;;17.60;7.90;;;;;;;21.08;85.78;95343.97;5047203;28;20299;-77
2023/09/21 09:15:06;;;;;;;16.43;7.77;;;;;;;21.08;85.96;95342.13;5050255;28;20232;-77
2023/09/21 09:17:32;;;;;;;18.50;7.93;;;;;;;21.12;86.71;95342.41;5044392;28;20233;-77
2023/09/21 09:19:58;;;;;;;14.20;7.90;;;;;;;21.13;86.84;95336.84;5065154;28;20347;-77
2023/09/21 09:22:23;;;;;;;19.53;8.33;;;;;;;21.18;88.20;95344.06;5049009;28;20732;-76
2023/09/21 09:24:50;;;;;;;18.37;8.60;;;;;;;21.19;87.82;95332.31;5051829;28;21003;-77
2023/09/21 09:27:16;;;;;;;17.63;8.40;;;;;;;21.25;87.59;95334.78;5050687;28;20220;-77
2023/09/21 09:29:48;;;;;;;20.47;8.07;;;;;;;21.25;88.03;95337.47;5050871;28;20236;-77
2023/09/21 09:32:16;;;;;;;17.43;9.13;;;;;;;21.27;87.58;95343.31;5053472;28;20234;-78
2023/09/21 09:34:44;;;;;;;18.63;8.47;;;;;;;21.29;85.42;95340.41;5068569;28;20318;-77
2023/09/21 09:37:12;;;;;;;16.35;7.85;;;;;;;21.29;86.27;95329.75;5036022;28;20232;-76
2023/09/21 09:39:38;;;;;;;15.60;8.20;;;;;;;21.32;86.08;95337.22;5073427;28;20629;-77
2023/09/21 09:42:03;;;;;;;16.43;8.33;;;;;;;21.28;86.25;95336.16;5037948;28;20296;-77
2023/09/21 09:44:29;;;;;;;17.10;7.93;;;;;;;21.27;87.10;95327.34;5054786;28;20373;-76
2023/09/21 09:46:58;;;;;;;16.13;7.83;;;;;;;21.26;86.78;95323.06;5057026;28;20315;-77
2023/09/21 09:49:26;;;;;;;15.77;8.37;;;;;;;21.26;86.72;95320.41;5065292;28;20283;-77
2023/09/21 09:51:52;;;;;;;16.30;8.27;;;;;;;21.27;91.04;95313.22;5073561;28;20245;-76
2023/09/21 09:54:18;;;;;;;17.55;8.57;;;;;;;21.27;89.46;95319.34;5038187;28;21045;-76
2023/09/21 09:56:44;;;;;;;13.73;7.87;;;;;;;21.27;89.97;95313.22;5041777;28;20315;-76
2023/09/21 09:59:11;;;;;;;16.27;8.10;;;;;;;21.30;89.48;95318.06;5063690;28;20814;-76
2023/09/21 10:01:41;;;;;;;16.45;8.02;;;;;;;21.30;88.28;95323.38;5036912;28;20794;-76
2023/09/21 10:04:09;;;;;;;16.05;8.32;;;;;;;21.32;88.21;95324.72;5070806;28;20225;-76
2023/09/21 10:06:36;;;;;;;17.10;8.18;;;;;;;21.32;87.06;95319.41;5053882;28;20229;-76
2023/09/21 10:09:10;;;;;;;18.95;8.52;;;;;;;21.35;86.89;95324.19;5063584;28;20233;-76
2023/09/21 10:11:44;;;;;;;19.83;8.48;;;;;;;21.52;85.31;95323.25;5054414;28;20248;-76
2023/09/21 10:14:11;;;;;;;17.57;7.80;;;;;;;21.58;87.39;95320.34;5070427;28;20215;-76
2023/09/21 10:16:38;;;;;;;17.48;8.15;;;;;;;21.71;88.31;95322.53;5056282;28;20277;-76
2023/09/21 10:19:04;;;;;;;23.50;11.82;;;;;;;21.86;86.77;95317.31;5042055;28;20281;-76
2023/09/21 10:21:31;;;;;;;19.38;9.00;;;;;;;21.90;86.01;95314.97;5065675;28;20231;-75
2023/09/21 10:24:03;;;;;;;20.88;8.98;;;;;;;22.02;84.66;95315.50;5052095;28;20260;-76
2023/09/21 10:26:38;;;;;;;17.90;9.20;;;;;;;22.19;85.45;95312.66;5073298;28;20231;-76
2023/09/21 10:29:06;;;;;;;22.77;8.90;;;;;;;22.43;83.28;95313.78;5036801;28;20232;-76
2023/09/21 10:31:33;;;;;;;15.68;8.52;;;;;;;22.67;81.88;95305.06;5050397;28;20227;-77
2023/09/21 10:33:58;;;;;;;15.02;7.32;;;;;;;22.91;81.72;95312.53;5064380;28;20232;-78
2023/09/21 10:36:27;;;;;;;17.35;7.88;;;;;;;22.99;80.59;95302.16;5073010;28;20224;-77
2023/09/21 10:39:11;;;;;;;14.00;7.00;;;;;;;23.10;77.95;95301.06;5050607;28;20240;-77
2023/09/21 10:41:43;;;;;;;14.70;6.97;;;;;;;23.13;78.95;95297.06;5070992;28;20748;-77
2023/09/21 10:44:09;;;;;;;14.23;7.30;;;;;;;23.27;78.50;95298.13;5041994;28;20247;-77
2023/09/21 10:46:37;;;;;;;15.57;7.00;;;;;;;23.35;77.69;95294.94;5052434;28;20267;-76
2023/09/21 10:49:11;;;;;;;14.10;6.88;;;;;;;23.52;78.95;95290.09;5070296;28;20233;-75
2023/09/21 10:51:39;;;;;;;12.40;6.60;;;;;;;23.71;76.36;95284.97;5068292;28;20225;-76
2023/09/21 10:54:10;;;;;;;13.80;7.50;;;;;;;23.92;74.84;95289.16;5049651;28;20268;-76
2023/09/21 10:56:37;;;;;;;17.15;7.18;;;;;;;23.95;73.18;95294.75;5055827;28;20750;-76
2023/09/21 10:59:03;;;;;;;15.52;6.60;;;;;;;23.99;74.87;95292.34;5061580;28;20263;-76
2023/09/21 11:01:29;;;;;;;12.48;6.47;;;;;;;24.06;75.43;95282.16;5074108;28;20786;-75
2023/09/21 11:03:55;;;;;;;14.70;6.25;;;;;;;24.15;74.70;95277.03;5054331;28;20235;-75
2023/09/21 11:06:20;;;;;;;15.98;6.18;;;;;;;24.22;72.72;95286.38;5059875;28;20234;-75
2023/09/21 11:08:49;;;;;;;10.50;6.10;;;;;;;24.30;74.18;95285.81;5058698;28;20217;-76
2023/09/21 11:11:15;;;;;;;13.00;6.10;;;;;;;24.42;73.03;95280.91;5039659;28;20236;-75
2023/09/21 11:13:41;;;;;;;12.48;6.30;;;;;;;24.58;72.32;95276.25;5071097;28;20231;-75
2023/09/21 11:16:09;;;;;;;12.13;6.60;;;;;;;24.61;71.27;95265.00;5039494;28;20254;-76